首页
METAR-TAF:

METAR-TAF

机场 :

Rhinelander-Oneida County Airport

Rhinelander, 威斯康辛州, 美国

纬度: 45-37-54N, 经度: 089-28-56W, 海拔: 495米

当前天气观测

该预报发布于33分钟前的07:53 UTC
静风
温度 9°C
湿度 93%
气压 1015 hPa
能見度: 16.1公里
天空无云

METAR: KRHI 190753Z AUTO 00000KT 10SM CLR 09/08 A2996 RMK AO2 SLP147 T00890078 $

时间: 03:26 (08:26 UTC)

预报

该预报发布于3小时和6分钟前的05:20 UTC
预报有效从19日的 06点(UTC)到 20日的 06点(UTC)
风速3节,风向西
能見度: 10公里
天空无云
短暂存在
从 19日的 08点(UTC)到 19日的 11点(UTC)
能見度: 0.8公里
从 19日的 1500点(UTC)
风速8节,风向西南
能見度: 10公里
少量云层高于4000英尺
从 20日的 0000点(UTC)
风速4节,风向南转西南
能見度: 10公里
天空无云

TAF: KRHI 190520Z 1906/2006 27003KT P6SM SKC TEMPO 1908/1911 1/2SM FG FM191500 23008KT P6SM FEW040 FM200000 21004KT P6SM SKC

超过4000个机场的气象观测和天气预报(METAR&TAF报告)。

可查询的气象台以黄色和红色小点在地图上表示。

将鼠标移到小点上方,可查看气象台名称。

然后点击查看天气观测和预报。

如需切换地图:点击带黑十字的绿色按钮放大地图;点击带横线的绿色按钮缩小地图;或者点击绿色箭头查看邻近地区的地图。


METAR-TAF: